sensor_id;sensor_type;location;lat;lon;timestamp;pressure;altitude;pressure_sealevel;temperature;humidity
63883;BME280;50047;50.596;30.466;2023-05-31T00:00:17;99265.19;;;15.46;49.71
63883;BME280;50047;50.596;30.466;2023-05-31T00:02:44;99267.13;;;15.41;49.73
63883;BME280;50047;50.596;30.466;2023-05-31T00:05:11;99267.41;;;15.38;49.82
63883;BME280;50047;50.596;30.466;2023-05-31T00:07:40;99269.09;;;15.33;49.55
63883;BME280;50047;50.596;30.466;2023-05-31T00:10:08;99265.96;;;15.32;49.56
63883;BME280;50047;50.596;30.466;2023-05-31T00:12:35;99264.02;;;15.31;49.50
63883;BME280;50047;50.596;30.466;2023-05-31T00:15:02;99264.55;;;15.33;49.38
63883;BME280;50047;50.596;30.466;2023-05-31T00:17:30;99262.35;;;15.35;49.30
63883;BME280;50047;50.596;30.466;2023-05-31T00:20:17;99263.16;;;15.33;49.44
63883;BME280;50047;50.596;30.466;2023-05-31T00:22:45;99267.20;;;15.32;49.44
63883;BME280;50047;50.596;30.466;2023-05-31T00:25:12;99263.54;;;15.31;49.29
63883;BME280;50047;50.596;30.466;2023-05-31T00:27:39;99263.77;;;15.30;49.28
63883;BME280;50047;50.596;30.466;2023-05-31T00:30:07;99263.49;;;15.30;49.40
63883;BME280;50047;50.596;30.466;2023-05-31T00:32:34;99263.17;;;15.29;49.70
63883;BME280;50047;50.596;30.466;2023-05-31T00:35:02;99259.98;;;15.29;49.36
63883;BME280;50047;50.596;30.466;2023-05-31T00:37:30;99258.70;;;15.28;49.39
63883;BME280;50047;50.596;30.466;2023-05-31T00:40:03;99258.65;;;15.27;49.39
63883;BME280;50047;50.596;30.466;2023-05-31T00:42:32;99258.09;;;15.27;49.15
63883;BME280;50047;50.596;30.466;2023-05-31T00:44:59;99258.84;;;15.31;49.29
63883;BME280;50047;50.596;30.466;2023-05-31T00:47:27;99260.95;;;15.35;48.85
63883;BME280;50047;50.596;30.466;2023-05-31T00:49:55;99257.92;;;15.41;48.60
63883;BME280;50047;50.596;30.466;2023-05-31T00:52:23;99261.41;;;15.46;48.78
63883;BME280;50047;50.596;30.466;2023-05-31T00:54:51;99260.54;;;15.46;48.84
63883;BME280;50047;50.596;30.466;2023-05-31T00:57:18;99263.35;;;15.44;48.80
63883;BME280;50047;50.596;30.466;2023-05-31T00:59:45;99264.86;;;15.42;49.11
63883;BME280;50047;50.596;30.466;2023-05-31T01:02:14;99265.63;;;15.36;49.46
63883;BME280;50047;50.596;30.466;2023-05-31T01:04:44;99272.91;;;15.31;49.61
63883;BME280;50047;50.596;30.466;2023-05-31T01:07:11;99277.40;;;15.23;49.79
63883;BME280;50047;50.596;30.466;2023-05-31T01:09:39;99278.60;;;15.16;50.49
63883;BME280;50047;50.596;30.466;2023-05-31T01:12:19;99283.23;;;15.05;51.14
63883;BME280;50047;50.596;30.466;2023-05-31T01:20:19;99284.88;;;14.67;52.17
63883;BME280;50047;50.596;30.466;2023-05-31T01:29:13;99292.48;;;14.30;52.61
63883;BME280;50047;50.596;30.466;2023-05-31T01:31:41;99300.11;;;14.22;52.41
63883;BME280;50047;50.596;30.466;2023-05-31T01:34:10;99297.98;;;14.14;53.04
63883;BME280;50047;50.596;30.466;2023-05-31T01:36:37;99301.02;;;14.05;53.40
63883;BME280;50047;50.596;30.466;2023-05-31T01:39:04;99298.45;;;13.96;53.73
63883;BME280;50047;50.596;30.466;2023-05-31T01:41:37;99301.09;;;13.87;54.00
63883;BME280;50047;50.596;30.466;2023-05-31T01:44:07;99305.08;;;13.77;54.13
63883;BME280;50047;50.596;30.466;2023-05-31T01:46:37;99305.47;;;13.70;54.83
63883;BME280;50047;50.596;30.466;2023-05-31T01:49:05;99308.35;;;13.65;55.37
63883;BME280;50047;50.596;30.466;2023-05-31T01:51:32;99307.36;;;13.61;55.08
63883;BME280;50047;50.596;30.466;2023-05-31T01:54:02;99310.23;;;13.57;55.86
63883;BME280;50047;50.596;30.466;2023-05-31T01:56:31;99308.39;;;13.53;56.23
63883;BME280;50047;50.596;30.466;2023-05-31T01:58:59;99304.89;;;13.52;56.20
63883;BME280;50047;50.596;30.466;2023-05-31T02:01:26;99304.19;;;13.52;57.01
63883;BME280;50047;50.596;30.466;2023-05-31T02:03:55;99303.84;;;13.57;57.18
63883;BME280;50047;50.596;30.466;2023-05-31T02:06:22;99307.58;;;13.62;56.73
63883;BME280;50047;50.596;30.466;2023-05-31T02:08:54;99308.27;;;13.71;57.01
63883;BME280;50047;50.596;30.466;2023-05-31T02:11:25;99314.67;;;13.79;57.36
63883;BME280;50047;50.596;30.466;2023-05-31T02:13:55;99318.04;;;13.90;57.15
63883;BME280;50047;50.596;30.466;2023-05-31T02:16:22;99313.34;;;14.06;56.65
63883;BME280;50047;50.596;30.466;2023-05-31T02:18:49;99321.52;;;14.23;57.40
63883;BME280;50047;50.596;30.466;2023-05-31T02:21:21;99328.24;;;14.40;56.84
63883;BME280;50047;50.596;30.466;2023-05-31T02:23:48;99323.77;;;14.57;57.17
63883;BME280;50047;50.596;30.466;2023-05-31T02:26:17;99334.17;;;14.77;57.61
63883;BME280;50047;50.596;30.466;2023-05-31T02:28:45;99335.27;;;15.00;58.60
63883;BME280;50047;50.596;30.466;2023-05-31T02:31:13;99338.25;;;15.20;59.40
63883;BME280;50047;50.596;30.466;2023-05-31T02:33:41;99348.75;;;15.40;60.06
63883;BME280;50047;50.596;30.466;2023-05-31T02:36:11;99352.98;;;15.57;59.85
63883;BME280;50047;50.596;30.466;2023-05-31T02:38:38;99366.98;;;15.77;59.37
63883;BME280;50047;50.596;30.466;2023-05-31T02:41:05;99377.53;;;15.98;58.81
63883;BME280;50047;50.596;30.466;2023-05-31T02:43:33;99379.06;;;16.25;58.29
63883;BME280;50047;50.596;30.466;2023-05-31T02:46:00;99385.02;;;16.49;57.71
63883;BME280;50047;50.596;30.466;2023-05-31T02:48:28;99381.35;;;16.67;57.38
63883;BME280;50047;50.596;30.466;2023-05-31T02:50:57;99378.59;;;16.87;56.96
63883;BME280;50047;50.596;30.466;2023-05-31T02:53:43;99386.40;;;17.12;56.34
63883;BME280;50047;50.596;30.466;2023-05-31T02:56:14;99378.79;;;17.39;55.74
63883;BME280;50047;50.596;30.466;2023-05-31T02:58:41;99384.61;;;17.54;54.85
63883;BME280;50047;50.596;30.466;2023-05-31T03:01:33;99395.45;;;17.85;53.97
63883;BME280;50047;50.596;30.466;2023-05-31T03:04:25;99388.48;;;18.12;53.48
63883;BME280;50047;50.596;30.466;2023-05-31T03:06:52;99364.55;;;18.44;53.27
63883;BME280;50047;50.596;30.466;2023-05-31T03:09:19;99373.14;;;18.77;52.10
63883;BME280;50047;50.596;30.466;2023-05-31T03:11:46;99385.04;;;19.00;51.40
63883;BME280;50047;50.596;30.466;2023-05-31T03:14:13;99387.71;;;19.24;50.94
63883;BME280;50047;50.596;30.466;2023-05-31T03:16:45;99384.98;;;19.45;50.51
63883;BME280;50047;50.596;30.466;2023-05-31T03:19:12;99393.80;;;19.72;49.68
63883;BME280;50047;50.596;30.466;2023-05-31T03:21:41;99397.93;;;19.97;49.17
63883;BME280;50047;50.596;30.466;2023-05-31T03:24:08;99411.46;;;20.14;48.52
63883;BME280;50047;50.596;30.466;2023-05-31T03:26:36;99415.00;;;20.14;48.12
63883;BME280;50047;50.596;30.466;2023-05-31T03:29:03;99402.12;;;20.33;47.88
63883;BME280;50047;50.596;30.466;2023-05-31T03:31:30;99423.56;;;20.48;47.25
63883;BME280;50047;50.596;30.466;2023-05-31T03:33:58;99407.65;;;20.63;47.22
63883;BME280;50047;50.596;30.466;2023-05-31T03:36:26;99405.63;;;20.85;46.56
63883;BME280;50047;50.596;30.466;2023-05-31T03:38:54;99411.48;;;21.11;45.90
63883;BME280;50047;50.596;30.466;2023-05-31T03:41:22;99425.73;;;21.30;45.42
63883;BME280;50047;50.596;30.466;2023-05-31T03:43:49;99420.22;;;21.39;45.25
63883;BME280;50047;50.596;30.466;2023-05-31T03:46:17;99441.24;;;21.54;44.62
63883;BME280;50047;50.596;30.466;2023-05-31T03:48:44;99428.02;;;21.43;44.92
63883;BME280;50047;50.596;30.466;2023-05-31T03:51:12;99441.46;;;21.75;44.28
63883;BME280;50047;50.596;30.466;2023-05-31T03:53:39;99455.51;;;21.77;43.52
63883;BME280;50047;50.596;30.466;2023-05-31T03:56:06;99442.66;;;21.89;43.49
63883;BME280;50047;50.596;30.466;2023-05-31T03:58:33;99461.48;;;22.11;42.66
63883;BME280;50047;50.596;30.466;2023-05-31T04:01:01;99451.18;;;22.09;43.00
63883;BME280;50047;50.596;30.466;2023-05-31T04:03:29;99461.04;;;22.20;42.93
63883;BME280;50047;50.596;30.466;2023-05-31T04:05:56;99442.67;;;22.42;42.37
63883;BME280;50047;50.596;30.466;2023-05-31T04:08:24;99455.40;;;22.73;42.04
63883;BME280;50047;50.596;30.466;2023-05-31T04:10:51;99459.16;;;22.94;41.70
63883;BME280;50047;50.596;30.466;2023-05-31T04:13:18;99447.54;;;22.61;41.57
63883;BME280;50047;50.596;30.466;2023-05-31T04:15:45;99452.31;;;22.16;42.74
63883;BME280;50047;50.596;30.466;2023-05-31T04:18:12;99465.09;;;21.79;43.07
63883;BME280;50047;50.596;30.466;2023-05-31T04:20:39;99467.43;;;21.96;42.61
63883;BME280;50047;50.596;30.466;2023-05-31T04:23:06;99483.73;;;22.49;42.09
63883;BME280;50047;50.596;30.466;2023-05-31T04:25:33;99487.88;;;22.79;41.15
63883;BME280;50047;50.596;30.466;2023-05-31T04:28:00;99494.61;;;22.95;41.06
63883;BME280;50047;50.596;30.466;2023-05-31T04:30:28;99480.06;;;23.28;40.58
63883;BME280;50047;50.596;30.466;2023-05-31T04:32:55;99486.12;;;23.59;39.97
63883;BME280;50047;50.596;30.466;2023-05-31T04:35:24;99486.33;;;23.88;39.76
63883;BME280;50047;50.596;30.466;2023-05-31T04:42:21;99492.83;;;23.00;41.90
63883;BME280;50047;50.596;30.466;2023-05-31T04:44:55;99482.33;;;23.54;41.42
63883;BME280;50047;50.596;30.466;2023-05-31T04:47:32;99489.31;;;24.18;39.75
63883;BME280;50047;50.596;30.466;2023-05-31T04:49:59;99491.70;;;24.50;38.83
63883;BME280;50047;50.596;30.466;2023-05-31T04:52:28;99489.18;;;24.67;38.81
63883;BME280;50047;50.596;30.466;2023-05-31T04:55:00;99486.47;;;24.75;38.78
63883;BME280;50047;50.596;30.466;2023-05-31T04:57:28;99489.21;;;24.85;38.47
63883;BME280;50047;50.596;30.466;2023-05-31T04:59:59;99487.20;;;25.04;37.84
63883;BME280;50047;50.596;30.466;2023-05-31T05:02:26;99491.64;;;25.40;37.09
63883;BME280;50047;50.596;30.466;2023-05-31T05:04:54;99490.19;;;25.82;36.36
63883;BME280;50047;50.596;30.466;2023-05-31T05:07:21;99492.59;;;26.28;35.90
63883;BME280;50047;50.596;30.466;2023-05-31T05:09:49;99494.54;;;26.69;35.07
63883;BME280;50047;50.596;30.466;2023-05-31T05:12:16;99492.00;;;26.90;33.86
63883;BME280;50047;50.596;30.466;2023-05-31T05:14:44;99489.81;;;26.68;34.31
63883;BME280;50047;50.596;30.466;2023-05-31T05:17:11;99503.34;;;26.77;34.28
63883;BME280;50047;50.596;30.466;2023-05-31T05:19:39;99482.46;;;27.35;33.56
63883;BME280;50047;50.596;30.466;2023-05-31T05:22:09;99493.70;;;27.72;32.99
63883;BME280;50047;50.596;30.466;2023-05-31T05:24:37;99490.23;;;28.04;32.54
63883;BME280;50047;50.596;30.466;2023-05-31T05:27:05;99491.16;;;28.22;32.23
63883;BME280;50047;50.596;30.466;2023-05-31T05:29:34;99489.02;;;28.43;32.14
63883;BME280;50047;50.596;30.466;2023-05-31T05:32:01;99501.30;;;28.77;31.59
63883;BME280;50047;50.596;30.466;2023-05-31T05:34:28;99498.98;;;28.97;31.33
63883;BME280;50047;50.596;30.466;2023-05-31T05:36:55;99506.87;;;29.54;30.63
63883;BME280;50047;50.596;30.466;2023-05-31T05:39:23;99505.58;;;30.11;30.13
63883;BME280;50047;50.596;30.466;2023-05-31T05:41:52;99499.57;;;30.33;29.27
63883;BME280;50047;50.596;30.466;2023-05-31T05:44:19;99508.14;;;30.46;28.75
63883;BME280;50047;50.596;30.466;2023-05-31T05:46:46;99504.48;;;30.64;28.86
63883;BME280;50047;50.596;30.466;2023-05-31T05:49:14;99503.27;;;30.78;28.58
63883;BME280;50047;50.596;30.466;2023-05-31T05:51:44;99507.43;;;30.93;28.27
63883;BME280;50047;50.596;30.466;2023-05-31T05:54:11;99506.04;;;31.23;28.29
63883;BME280;50047;50.596;30.466;2023-05-31T05:56:39;99516.20;;;31.41;27.56
63883;BME280;50047;50.596;30.466;2023-05-31T05:59:06;99503.02;;;31.74;27.65
63883;BME280;50047;50.596;30.466;2023-05-31T06:01:57;99515.31;;;32.12;27.08
63883;BME280;50047;50.596;30.466;2023-05-31T06:04:25;99513.04;;;31.89;27.04
63883;BME280;50047;50.596;30.466;2023-05-31T06:06:53;99508.11;;;31.65;27.40
63883;BME280;50047;50.596;30.466;2023-05-31T06:09:21;99511.69;;;31.73;26.85
63883;BME280;50047;50.596;30.466;2023-05-31T06:11:49;99506.24;;;31.54;27.39
63883;BME280;50047;50.596;30.466;2023-05-31T06:14:16;99517.78;;;31.47;27.49
63883;BME280;50047;50.596;30.466;2023-05-31T06:16:46;99526.36;;;31.38;27.55
63883;BME280;50047;50.596;30.466;2023-05-31T06:19:13;99508.72;;;31.50;27.99
63883;BME280;50047;50.596;30.466;2023-05-31T06:21:40;99502.94;;;31.62;28.05
63883;BME280;50047;50.596;30.466;2023-05-31T06:24:07;99501.42;;;31.53;28.25
63883;BME280;50047;50.596;30.466;2023-05-31T06:26:35;99496.11;;;31.46;27.88
63883;BME280;50047;50.596;30.466;2023-05-31T06:29:03;99501.11;;;31.48;27.98
63883;BME280;50047;50.596;30.466;2023-05-31T06:32:09;99523.28;;;31.65;27.58
63883;BME280;50047;50.596;30.466;2023-05-31T06:34:40;99522.02;;;31.66;27.68
63883;BME280;50047;50.596;30.466;2023-05-31T06:37:08;99528.08;;;31.57;27.32
63883;BME280;50047;50.596;30.466;2023-05-31T06:39:36;99534.84;;;31.29;28.05
63883;BME280;50047;50.596;30.466;2023-05-31T06:42:03;99524.02;;;31.47;28.70
63883;BME280;50047;50.596;30.466;2023-05-31T06:44:53;99518.84;;;30.74;29.99
63883;BME280;50047;50.596;30.466;2023-05-31T06:47:43;99515.26;;;30.51;30.97
63883;BME280;50047;50.596;30.466;2023-05-31T06:50:37;99521.56;;;30.29;31.29
63883;BME280;50047;50.596;30.466;2023-05-31T06:53:23;99517.23;;;29.98;31.07
63883;BME280;50047;50.596;30.466;2023-05-31T06:55:57;99542.48;;;29.51;31.74
63883;BME280;50047;50.596;30.466;2023-05-31T06:58:28;99517.70;;;29.29;32.29
63883;BME280;50047;50.596;30.466;2023-05-31T07:00:56;99516.17;;;29.20;32.24
63883;BME280;50047;50.596;30.466;2023-05-31T07:03:23;99533.66;;;28.70;32.36
63883;BME280;50047;50.596;30.466;2023-05-31T07:05:51;99536.83;;;27.36;34.03
63883;BME280;50047;50.596;30.466;2023-05-31T07:08:18;99527.27;;;26.11;35.79
63883;BME280;50047;50.596;30.466;2023-05-31T07:11:04;99533.64;;;25.00;36.77
63883;BME280;50047;50.596;30.466;2023-05-31T07:13:31;99538.73;;;23.99;38.33
63883;BME280;50047;50.596;30.466;2023-05-31T07:15:59;99531.08;;;23.20;40.38
63883;BME280;50047;50.596;30.466;2023-05-31T07:18:26;99531.48;;;22.70;40.46
63883;BME280;50047;50.596;30.466;2023-05-31T07:20:55;99527.06;;;22.19;41.53
63883;BME280;50047;50.596;30.466;2023-05-31T07:23:23;99525.17;;;21.81;42.63
63883;BME280;50047;50.596;30.466;2023-05-31T07:25:53;99510.20;;;21.60;43.08
63883;BME280;50047;50.596;30.466;2023-05-31T07:28:20;99513.18;;;21.19;44.95
63883;BME280;50047;50.596;30.466;2023-05-31T07:30:47;99525.66;;;21.04;45.15
63883;BME280;50047;50.596;30.466;2023-05-31T07:33:14;99516.02;;;20.76;46.64
63883;BME280;50047;50.596;30.466;2023-05-31T07:35:58;99519.17;;;20.53;46.45
63883;BME280;50047;50.596;30.466;2023-05-31T07:38:26;99516.27;;;20.25;46.94
63883;BME280;50047;50.596;30.466;2023-05-31T07:40:54;99523.05;;;20.19;47.81
63883;BME280;50047;50.596;30.466;2023-05-31T07:43:23;99533.48;;;19.93;47.89
63883;BME280;50047;50.596;30.466;2023-05-31T07:45:51;99525.54;;;19.78;48.81
63883;BME280;50047;50.596;30.466;2023-05-31T07:48:21;99528.23;;;19.85;48.60
63883;BME280;50047;50.596;30.466;2023-05-31T07:50:48;99533.39;;;19.84;49.19
63883;BME280;50047;50.596;30.466;2023-05-31T07:53:15;99525.73;;;19.89;48.27
63883;BME280;50047;50.596;30.466;2023-05-31T07:55:42;99520.52;;;19.80;47.88
63883;BME280;50047;50.596;30.466;2023-05-31T07:58:10;99523.17;;;19.73;47.52
63883;BME280;50047;50.596;30.466;2023-05-31T08:00:39;99518.96;;;19.65;47.20
63883;BME280;50047;50.596;30.466;2023-05-31T08:03:06;99536.51;;;19.60;46.96
63883;BME280;50047;50.596;30.466;2023-05-31T08:05:33;99528.07;;;19.52;47.72
63883;BME280;50047;50.596;30.466;2023-05-31T08:08:00;99526.99;;;19.43;47.66
63883;BME280;50047;50.596;30.466;2023-05-31T08:10:27;99531.27;;;19.40;47.87
63883;BME280;50047;50.596;30.466;2023-05-31T08:12:56;99522.42;;;19.33;46.88
63883;BME280;50047;50.596;30.466;2023-05-31T08:15:23;99538.16;;;19.28;46.40
63883;BME280;50047;50.596;30.466;2023-05-31T08:17:51;99537.29;;;19.29;46.68
63883;BME280;50047;50.596;30.466;2023-05-31T08:20:18;99539.56;;;19.22;47.09
63883;BME280;50047;50.596;30.466;2023-05-31T08:22:45;99545.27;;;19.16;47.59
63883;BME280;50047;50.596;30.466;2023-05-31T08:25:13;99560.71;;;19.17;47.20
63883;BME280;50047;50.596;30.466;2023-05-31T08:27:41;99549.63;;;19.19;47.08
63883;BME280;50047;50.596;30.466;2023-05-31T08:30:09;99547.52;;;19.14;46.26
63883;BME280;50047;50.596;30.466;2023-05-31T08:32:37;99572.40;;;19.10;46.43
63883;BME280;50047;50.596;30.466;2023-05-31T08:35:05;99572.92;;;18.99;45.94
63883;BME280;50047;50.596;30.466;2023-05-31T08:37:39;99568.12;;;18.89;46.32
63883;BME280;50047;50.596;30.466;2023-05-31T08:40:07;99569.23;;;18.81;46.08
63883;BME280;50047;50.596;30.466;2023-05-31T08:42:43;99572.07;;;18.81;44.71
63883;BME280;50047;50.596;30.466;2023-05-31T08:45:12;99561.16;;;18.71;44.52
63883;BME280;50047;50.596;30.466;2023-05-31T08:47:43;99557.27;;;18.70;43.12
63883;BME280;50047;50.596;30.466;2023-05-31T08:50:11;99560.30;;;18.71;43.11
63883;BME280;50047;50.596;30.466;2023-05-31T08:52:39;99555.98;;;18.75;43.23
63883;BME280;50047;50.596;30.466;2023-05-31T08:55:07;99555.59;;;18.76;41.92
63883;BME280;50047;50.596;30.466;2023-05-31T08:57:35;99549.36;;;18.76;41.75
63883;BME280;50047;50.596;30.466;2023-05-31T09:00:04;99552.82;;;18.81;41.47
63883;BME280;50047;50.596;30.466;2023-05-31T09:02:38;99541.94;;;18.84;39.76
63883;BME280;50047;50.596;30.466;2023-05-31T09:05:06;99550.28;;;18.96;38.71
63883;BME280;50047;50.596;30.466;2023-05-31T09:07:38;99533.71;;;19.03;38.98
63883;BME280;50047;50.596;30.466;2023-05-31T09:10:06;99545.32;;;19.07;37.20
63883;BME280;50047;50.596;30.466;2023-05-31T09:12:36;99552.20;;;19.04;36.94
63883;BME280;50047;50.596;30.466;2023-05-31T09:15:05;99560.89;;;19.04;37.73
63883;BME280;50047;50.596;30.466;2023-05-31T09:17:32;99560.35;;;19.07;37.92
63883;BME280;50047;50.596;30.466;2023-05-31T09:20:00;99560.88;;;19.12;39.36
63883;BME280;50047;50.596;30.466;2023-05-31T09:22:28;99538.50;;;19.15;40.63
63883;BME280;50047;50.596;30.466;2023-05-31T09:24:57;99552.46;;;19.09;43.19
63883;BME280;50047;50.596;30.466;2023-05-31T09:27:26;99555.16;;;19.06;42.96
63883;BME280;50047;50.596;30.466;2023-05-31T09:30:04;99564.09;;;19.11;43.31
63883;BME280;50047;50.596;30.466;2023-05-31T09:32:34;99551.61;;;19.07;44.75
63883;BME280;50047;50.596;30.466;2023-05-31T09:35:13;99557.13;;;19.05;44.84
63883;BME280;50047;50.596;30.466;2023-05-31T09:37:46;99555.04;;;18.98;45.07
63883;BME280;50047;50.596;30.466;2023-05-31T09:40:24;99548.30;;;18.99;45.44
63883;BME280;50047;50.596;30.466;2023-05-31T09:42:54;99551.15;;;19.06;46.35
63883;BME280;50047;50.596;30.466;2023-05-31T09:45:22;99539.29;;;19.13;45.65
63883;BME280;50047;50.596;30.466;2023-05-31T09:47:50;99528.41;;;19.15;43.82
63883;BME280;50047;50.596;30.466;2023-05-31T09:50:19;99548.04;;;19.16;42.40
63883;BME280;50047;50.596;30.466;2023-05-31T09:52:49;99528.94;;;19.16;43.14
63883;BME280;50047;50.596;30.466;2023-05-31T09:55:18;99535.83;;;19.24;41.77
63883;BME280;50047;50.596;30.466;2023-05-31T09:57:45;99529.55;;;19.32;41.54
63883;BME280;50047;50.596;30.466;2023-05-31T10:00:14;99524.70;;;19.34;40.13
63883;BME280;50047;50.596;30.466;2023-05-31T10:02:54;99517.71;;;19.32;40.14
63883;BME280;50047;50.596;30.466;2023-05-31T10:05:21;99513.29;;;19.34;40.63
63883;BME280;50047;50.596;30.466;2023-05-31T10:07:51;99519.54;;;19.37;40.30
63883;BME280;50047;50.596;30.466;2023-05-31T10:10:18;99530.28;;;19.41;38.62
63883;BME280;50047;50.596;30.466;2023-05-31T10:12:51;99523.45;;;19.34;39.40
63883;BME280;50047;50.596;30.466;2023-05-31T10:15:23;99530.01;;;19.30;39.71
63883;BME280;50047;50.596;30.466;2023-05-31T10:18:11;99523.28;;;19.34;40.39
63883;BME280;50047;50.596;30.466;2023-05-31T10:20:59;99538.84;;;19.41;38.64
63883;BME280;50047;50.596;30.466;2023-05-31T10:23:28;99539.83;;;19.30;36.30
63883;BME280;50047;50.596;30.466;2023-05-31T10:26:14;99524.63;;;19.27;35.32
63883;BME280;50047;50.596;30.466;2023-05-31T10:28:54;99520.15;;;19.26;35.75
63883;BME280;50047;50.596;30.466;2023-05-31T10:31:23;99518.28;;;19.35;37.34
63883;BME280;50047;50.596;30.466;2023-05-31T10:33:54;99535.91;;;19.35;37.31
63883;BME280;50047;50.596;30.466;2023-05-31T10:36:28;99537.13;;;19.28;37.42
63883;BME280;50047;50.596;30.466;2023-05-31T10:39:00;99526.94;;;19.36;37.80
63883;BME280;50047;50.596;30.466;2023-05-31T10:41:41;99523.25;;;19.36;38.49
63883;BME280;50047;50.596;30.466;2023-05-31T10:44:19;99531.70;;;19.41;37.54
63883;BME280;50047;50.596;30.466;2023-05-31T10:46:56;99520.59;;;19.36;36.81
63883;BME280;50047;50.596;30.466;2023-05-31T10:49:26;99532.80;;;19.31;36.97
63883;BME280;50047;50.596;30.466;2023-05-31T10:52:03;99525.69;;;19.21;35.89
63883;BME280;50047;50.596;30.466;2023-05-31T10:54:32;99520.70;;;19.24;35.62
63883;BME280;50047;50.596;30.466;2023-05-31T10:57:03;99507.36;;;19.32;35.84
63883;BME280;50047;50.596;30.466;2023-05-31T10:59:39;99515.91;;;19.29;36.91
63883;BME280;50047;50.596;30.466;2023-05-31T11:02:11;99511.41;;;19.44;37.52
63883;BME280;50047;50.596;30.466;2023-05-31T11:04:38;99525.91;;;19.51;36.30
63883;BME280;50047;50.596;30.466;2023-05-31T11:09:41;99522.89;;;19.46;35.63
63883;BME280;50047;50.596;30.466;2023-05-31T11:12:36;99531.95;;;19.45;35.59
63883;BME280;50047;50.596;30.466;2023-05-31T11:15:04;99524.74;;;19.45;34.19
63883;BME280;50047;50.596;30.466;2023-05-31T11:17:41;99524.40;;;19.46;32.30
63883;BME280;50047;50.596;30.466;2023-05-31T11:20:18;99511.98;;;19.50;31.24
63883;BME280;50047;50.596;30.466;2023-05-31T11:22:46;99520.75;;;19.58;30.78
63883;BME280;50047;50.596;30.466;2023-05-31T11:25:19;99517.21;;;19.56;30.06
63883;BME280;50047;50.596;30.466;2023-05-31T11:28:05;99517.55;;;19.61;32.06
63883;BME280;50047;50.596;30.466;2023-05-31T11:30:37;99513.95;;;19.67;33.95
63883;BME280;50047;50.596;30.466;2023-05-31T11:33:14;99516.77;;;19.66;35.34
63883;BME280;50047;50.596;30.466;2023-05-31T11:35:41;99508.11;;;19.72;35.12
63883;BME280;50047;50.596;30.466;2023-05-31T11:38:08;99512.33;;;19.75;34.68
63883;BME280;50047;50.596;30.466;2023-05-31T11:40:36;99521.59;;;19.70;33.11
63883;BME280;50047;50.596;30.466;2023-05-31T11:43:07;99512.35;;;19.71;32.94
63883;BME280;50047;50.596;30.466;2023-05-31T11:45:39;99504.73;;;19.73;32.04
63883;BME280;50047;50.596;30.466;2023-05-31T11:48:29;99515.89;;;19.82;33.09
63883;BME280;50047;50.596;30.466;2023-05-31T11:51:03;99512.98;;;19.81;33.71
63883;BME280;50047;50.596;30.466;2023-05-31T11:53:31;99516.65;;;19.77;32.76
63883;BME280;50047;50.596;30.466;2023-05-31T11:55:58;99503.09;;;19.76;33.22
63883;BME280;50047;50.596;30.466;2023-05-31T11:58:26;99503.37;;;19.79;33.02
63883;BME280;50047;50.596;30.466;2023-05-31T12:00:56;99514.54;;;19.81;32.52
63883;BME280;50047;50.596;30.466;2023-05-31T12:03:24;99515.95;;;19.77;32.10
63883;BME280;50047;50.596;30.466;2023-05-31T12:05:51;99503.73;;;19.75;32.17
63883;BME280;50047;50.596;30.466;2023-05-31T12:10:19;99498.61;;;19.79;30.30
63883;BME280;50047;50.596;30.466;2023-05-31T12:12:47;99486.04;;;19.77;30.62
63883;BME280;50047;50.596;30.466;2023-05-31T12:15:16;99492.44;;;19.87;31.89
63883;BME280;50047;50.596;30.466;2023-05-31T12:17:43;99488.36;;;19.93;32.14
63883;BME280;50047;50.596;30.466;2023-05-31T12:20:11;99491.73;;;20.00;31.56
63883;BME280;50047;50.596;30.466;2023-05-31T12:22:40;99490.15;;;20.02;32.15
63883;BME280;50047;50.596;30.466;2023-05-31T12:25:09;99495.35;;;20.04;31.77
63883;BME280;50047;50.596;30.466;2023-05-31T12:27:36;99491.47;;;19.99;31.73
63883;BME280;50047;50.596;30.466;2023-05-31T12:30:16;99486.20;;;19.92;31.52
63883;BME280;50047;50.596;30.466;2023-05-31T12:32:46;99474.89;;;19.96;32.75
63883;BME280;50047;50.596;30.466;2023-05-31T12:35:13;99476.07;;;20.01;33.14
63883;BME280;50047;50.596;30.466;2023-05-31T12:37:42;99487.76;;;20.03;32.57
63883;BME280;50047;50.596;30.466;2023-05-31T12:42:37;99478.62;;;20.00;32.34
63883;BME280;50047;50.596;30.466;2023-05-31T12:45:05;99472.23;;;19.94;31.89
63883;BME280;50047;50.596;30.466;2023-05-31T12:47:34;99470.27;;;19.90;31.37
63883;BME280;50047;50.596;30.466;2023-05-31T12:50:06;99480.29;;;19.98;31.88
63883;BME280;50047;50.596;30.466;2023-05-31T12:52:35;99473.55;;;19.99;31.41
63883;BME280;50047;50.596;30.466;2023-05-31T12:55:06;99481.23;;;20.00;30.64
63883;BME280;50047;50.596;30.466;2023-05-31T12:57:34;99469.65;;;19.95;32.02
63883;BME280;50047;50.596;30.466;2023-05-31T13:00:06;99471.80;;;19.99;31.85
63883;BME280;50047;50.596;30.466;2023-05-31T13:02:39;99461.35;;;20.01;32.94
63883;BME280;50047;50.596;30.466;2023-05-31T13:05:07;99465.50;;;20.05;31.77
63883;BME280;50047;50.596;30.466;2023-05-31T13:07:35;99470.88;;;20.06;31.86
63883;BME280;50047;50.596;30.466;2023-05-31T13:10:03;99467.26;;;20.08;31.41
63883;BME280;50047;50.596;30.466;2023-05-31T13:12:37;99455.08;;;20.02;31.97
63883;BME280;50047;50.596;30.466;2023-05-31T13:15:06;99461.46;;;20.12;32.15
63883;BME280;50047;50.596;30.466;2023-05-31T13:17:33;99458.34;;;20.11;32.97
63883;BME280;50047;50.596;30.466;2023-05-31T13:20:01;99459.11;;;20.16;32.39
63883;BME280;50047;50.596;30.466;2023-05-31T13:22:40;99454.46;;;20.15;32.32
63883;BME280;50047;50.596;30.466;2023-05-31T13:25:08;99448.20;;;20.13;32.41
63883;BME280;50047;50.596;30.466;2023-05-31T13:27:36;99455.05;;;20.13;33.09